createdAt,value
2023-03-18T00:01:41.124Z,7.35
2023-03-18T00:04:30.932Z,7.20
2023-03-18T00:07:20.161Z,7.18
2023-03-18T00:10:12.375Z,7.20
2023-03-18T00:13:01.379Z,7.53
2023-03-18T00:15:52.174Z,7.33
2023-03-18T00:18:42.064Z,8.40
2023-03-18T00:21:31.212Z,7.27
2023-03-18T00:24:19.817Z,7.83
2023-03-18T00:27:11.373Z,7.50
2023-03-18T00:30:00.047Z,7.40
2023-03-18T00:32:49.577Z,7.00
2023-03-18T00:35:39.344Z,7.10
2023-03-18T00:38:30.884Z,7.23
2023-03-18T00:41:19.660Z,6.95
2023-03-18T00:44:10.477Z,6.55
2023-03-18T00:46:59.589Z,7.57
2023-03-18T00:49:49.031Z,6.73
2023-03-18T00:52:39.979Z,7.03
2023-03-18T00:55:28.765Z,6.72
2023-03-18T00:58:18.196Z,6.38
2023-03-18T01:01:09.838Z,7.15
2023-03-18T01:04:00.747Z,6.37
2023-03-18T01:06:51.765Z,5.28
2023-03-18T01:09:41.175Z,6.22
2023-03-18T01:12:29.770Z,6.90
2023-03-18T01:15:22.254Z,6.87
2023-03-18T01:18:12.379Z,7.25
2023-03-18T01:21:02.105Z,7.10
2023-03-18T01:23:56.192Z,7.07
2023-03-18T01:26:45.422Z,6.77
2023-03-18T01:29:35.111Z,6.03
2023-03-18T01:32:24.772Z,7.13
2023-03-18T01:35:15.155Z,6.67
2023-03-18T01:38:10.358Z,6.80
2023-03-18T01:40:59.686Z,6.30
2023-03-18T01:43:50.134Z,6.60
2023-03-18T01:46:40.833Z,7.47
2023-03-18T01:49:35.390Z,6.00
2023-03-18T01:52:32.069Z,6.40
2023-03-18T01:55:23.951Z,6.00
2023-03-18T01:58:17.169Z,6.87
2023-03-18T02:01:13.929Z,7.73
2023-03-18T02:04:04.256Z,7.40
2023-03-18T02:06:52.870Z,6.83
2023-03-18T02:09:43.765Z,6.93
2023-03-18T02:12:36.060Z,6.90
2023-03-18T02:15:27.631Z,5.80
2023-03-18T02:18:20.347Z,6.50
2023-03-18T02:21:21.539Z,7.27
2023-03-18T02:24:29.266Z,9.07
2023-03-18T02:27:20.704Z,8.20
2023-03-18T02:30:14.257Z,8.40
2023-03-18T02:33:06.995Z,8.40
2023-03-18T02:36:04.327Z,8.00
2023-03-18T02:38:57.788Z,8.32
2023-03-18T02:41:47.835Z,8.43
2023-03-18T02:44:42.207Z,8.80
2023-03-18T02:48:01.130Z,9.70
2023-03-18T02:50:50.268Z,10.17
2023-03-18T02:53:40.662Z,11.87
2023-03-18T02:56:31.382Z,10.67
2023-03-18T02:59:21.797Z,9.77
2023-03-18T03:02:12.646Z,10.17
2023-03-18T03:05:02.638Z,10.67
2023-03-18T03:07:52.175Z,9.30
2023-03-18T03:10:42.223Z,8.67
2023-03-18T03:13:31.912Z,8.67
2023-03-18T03:16:21.382Z,8.70
2023-03-18T03:19:12.842Z,9.00
2023-03-18T03:22:02.144Z,9.13
2023-03-18T03:24:51.562Z,8.60
2023-03-18T03:27:40.156Z,8.43
2023-03-18T03:30:29.864Z,7.67
2023-03-18T03:33:18.744Z,7.33
2023-03-18T03:36:13.164Z,8.17
2023-03-18T03:39:02.269Z,7.73
2023-03-18T03:41:51.682Z,6.53
2023-03-18T03:44:40.798Z,7.03
2023-03-18T03:47:31.189Z,7.33
2023-03-18T03:50:20.873Z,7.40
2023-03-18T03:53:11.445Z,7.07
2023-03-18T03:56:00.668Z,6.87
2023-03-18T03:58:49.862Z,7.43
2023-03-18T04:01:40.127Z,7.07
2023-03-18T04:04:30.142Z,6.77
2023-03-18T04:07:19.434Z,6.93
2023-03-18T04:10:13.921Z,6.23
2023-03-18T04:13:03.613Z,6.90
2023-03-18T04:15:53.189Z,6.70
2023-03-18T04:18:42.847Z,7.00
2023-03-18T04:21:31.882Z,6.93
2023-03-18T04:24:20.793Z,6.57
2023-03-18T04:27:12.911Z,6.97
2023-03-18T04:30:01.918Z,7.00
2023-03-18T04:33:01.735Z,7.10
2023-03-18T04:35:52.659Z,6.73
2023-03-18T04:38:43.115Z,6.43
2023-03-18T04:41:32.437Z,6.47
2023-03-18T04:44:26.316Z,5.87
2023-03-18T04:47:16.982Z,6.10
2023-03-18T04:50:10.858Z,6.07
2023-03-18T04:53:00.171Z,6.07
2023-03-18T04:55:51.738Z,5.67
2023-03-18T04:58:44.165Z,6.23
2023-03-18T05:01:39.508Z,6.73
2023-03-18T05:04:29.269Z,6.70
2023-03-18T05:07:18.171Z,5.90
2023-03-18T05:10:18.912Z,6.80
2023-03-18T05:13:10.897Z,6.47
2023-03-18T05:15:59.677Z,6.67
2023-03-18T05:18:49.929Z,6.67
2023-03-18T05:21:39.841Z,6.40
2023-03-18T05:24:28.783Z,6.80
2023-03-18T05:27:21.132Z,6.30
2023-03-18T05:30:19.557Z,6.53
2023-03-18T05:33:12.055Z,6.80
2023-03-18T05:36:09.812Z,6.53
2023-03-18T05:39:05.911Z,6.57
2023-03-18T05:41:54.949Z,6.67
2023-03-18T05:44:48.293Z,7.30
2023-03-18T05:47:41.848Z,6.53
2023-03-18T05:50:35.554Z,6.20
2023-03-18T05:53:29.858Z,6.67
2023-03-18T05:56:28.759Z,6.80
2023-03-18T05:59:23.767Z,6.97
2023-03-18T06:02:18.867Z,6.77
2023-03-18T06:05:09.154Z,6.10
2023-03-18T06:07:59.077Z,6.50
2023-03-18T06:10:49.416Z,6.90
2023-03-18T06:13:38.261Z,7.27
2023-03-18T06:16:28.296Z,5.63
2023-03-18T06:19:17.944Z,6.60
2023-03-18T06:22:06.660Z,6.27
2023-03-18T06:24:55.642Z,6.00
2023-03-18T06:27:47.122Z,6.63
2023-03-18T06:30:36.558Z,7.23
2023-03-18T06:33:26.940Z,6.90
2023-03-18T06:36:16.602Z,7.67
2023-03-18T06:39:10.749Z,7.90
2023-03-18T06:42:00.004Z,7.73
2023-03-18T06:45:04.694Z,7.93
2023-03-18T06:48:06.649Z,6.77
2023-03-18T06:50:57.637Z,7.13
2023-03-18T06:53:53.805Z,7.10
2023-03-18T06:56:46.221Z,8.83
2023-03-18T06:59:41.210Z,14.70
2023-03-18T07:02:31.917Z,19.40
2023-03-18T07:05:21.704Z,13.70
2023-03-18T07:08:11.734Z,12.77
2023-03-18T07:11:03.828Z,10.50
2023-03-18T07:13:54.318Z,10.77
2023-03-18T07:16:48.931Z,8.93
2023-03-18T07:19:38.937Z,10.07
2023-03-18T07:22:27.559Z,11.97
2023-03-18T07:25:16.658Z,9.10
2023-03-18T07:28:05.945Z,10.17
2023-03-18T07:30:54.984Z,11.80
2023-03-18T07:33:43.639Z,10.40
2023-03-18T07:36:34.624Z,9.27
2023-03-18T07:39:23.595Z,8.07
2023-03-18T07:42:12.678Z,9.63
2023-03-18T07:45:08.748Z,8.67
2023-03-18T07:47:58.993Z,8.77
2023-03-18T07:50:47.601Z,8.93
2023-03-18T07:53:38.230Z,12.03
2023-03-18T07:56:27.579Z,12.37
2023-03-18T07:59:18.580Z,10.00
2023-03-18T08:02:08.238Z,9.37
2023-03-18T08:04:58.056Z,9.03
2023-03-18T08:07:46.762Z,9.30
2023-03-18T08:10:37.470Z,8.80
2023-03-18T08:13:27.055Z,12.83
2023-03-18T08:16:15.992Z,10.77
2023-03-18T08:19:04.789Z,11.30
2023-03-18T08:21:55.731Z,10.00
2023-03-18T08:24:45.677Z,10.43
2023-03-18T08:27:36.900Z,16.70
2023-03-18T08:30:28.698Z,16.50
2023-03-18T08:33:17.367Z,12.30
2023-03-18T08:36:06.882Z,11.63
2023-03-18T08:38:57.773Z,10.57
2023-03-18T08:41:46.383Z,10.02
2023-03-18T08:44:36.345Z,9.20
2023-03-18T08:47:25.859Z,9.53
2023-03-18T08:50:15.309Z,11.35
2023-03-18T08:53:06.192Z,13.10
2023-03-18T08:55:54.778Z,9.68
2023-03-18T08:58:45.908Z,9.35
2023-03-18T09:01:35.908Z,9.43
2023-03-18T09:04:26.460Z,9.13
2023-03-18T09:07:17.932Z,8.50
2023-03-18T09:10:09.423Z,9.00
2023-03-18T09:12:58.676Z,8.43
2023-03-18T09:15:47.273Z,8.40
2023-03-18T09:18:38.505Z,8.65
2023-03-18T09:21:27.163Z,8.25
2023-03-18T09:24:16.610Z,7.68
2023-03-18T09:27:05.487Z,8.45
2023-03-18T09:29:54.897Z,7.43
2023-03-18T09:32:44.715Z,7.85
2023-03-18T09:35:36.436Z,8.85
2023-03-18T09:38:27.096Z,8.27
2023-03-18T09:41:30.022Z,7.97
2023-03-18T09:44:25.045Z,8.80
2023-03-18T09:47:36.680Z,8.30
2023-03-18T09:50:38.194Z,8.00
2023-03-18T09:53:32.496Z,8.57
2023-03-18T09:56:26.825Z,8.30
2023-03-18T09:59:23.228Z,7.18
2023-03-18T10:02:22.511Z,7.65
2023-03-18T10:05:15.542Z,8.27
2023-03-18T10:08:15.131Z,7.43
2023-03-18T10:11:10.855Z,6.72
2023-03-18T10:14:19.349Z,7.15
2023-03-18T10:17:17.725Z,7.55
2023-03-18T10:20:16.675Z,7.18
2023-03-18T10:23:25.541Z,6.75
2023-03-18T10:26:17.932Z,7.85
2023-03-18T10:29:23.704Z,7.63
2023-03-18T10:32:33.322Z,7.18
2023-03-18T10:35:38.986Z,6.95
2023-03-18T10:38:34.229Z,7.85
2023-03-18T10:41:27.759Z,7.40
2023-03-18T10:44:21.692Z,7.82
2023-03-18T10:47:17.137Z,7.53
2023-03-18T10:50:17.309Z,7.18
2023-03-18T10:53:14.559Z,8.00
2023-03-18T10:56:08.590Z,7.88
2023-03-18T10:58:57.513Z,9.57
2023-03-18T11:01:50.049Z,8.27
2023-03-18T11:04:46.873Z,7.93
2023-03-18T11:07:36.088Z,8.43
2023-03-18T11:10:27.714Z,8.38
2023-03-18T11:13:18.606Z,8.60
2023-03-18T11:16:07.826Z,7.00
2023-03-18T11:18:58.027Z,7.00
2023-03-18T11:21:46.893Z,7.60
2023-03-18T11:24:42.488Z,6.72
2023-03-18T11:27:38.613Z,7.13
2023-03-18T11:30:34.924Z,6.30
2023-03-18T11:33:25.861Z,7.10
2023-03-18T11:36:19.402Z,7.10
2023-03-18T11:39:08.336Z,6.75
2023-03-18T11:42:01.388Z,6.85
2023-03-18T11:44:57.417Z,6.68
2023-03-18T11:47:48.527Z,6.45
2023-03-18T11:50:46.734Z,7.68
2023-03-18T11:53:48.510Z,7.45
2023-03-18T11:56:45.034Z,7.15
2023-03-18T11:59:43.833Z,7.78
2023-03-18T12:02:49.894Z,7.78
2023-03-18T12:06:00.184Z,6.55
2023-03-18T12:09:01.094Z,6.53
2023-03-18T12:12:16.677Z,6.32
2023-03-18T12:15:16.886Z,6.20
2023-03-18T12:18:15.914Z,5.78
2023-03-18T12:21:23.652Z,6.03
2023-03-18T12:24:33.998Z,6.40
2023-03-18T12:27:34.012Z,5.32
2023-03-18T12:30:43.589Z,6.00
2023-03-18T12:33:44.626Z,5.65
2023-03-18T12:36:49.098Z,5.20
2023-03-18T12:40:06.512Z,4.75
2023-03-18T12:43:16.127Z,5.45
2023-03-18T12:46:13.120Z,5.10
2023-03-18T12:49:11.198Z,5.22
2023-03-18T12:52:07.766Z,5.15
2023-03-18T12:55:02.957Z,4.40
2023-03-18T12:57:56.579Z,4.53
2023-03-18T13:00:50.797Z,4.32
2023-03-18T13:03:42.040Z,4.10
2023-03-18T13:06:38.015Z,5.32
2023-03-18T13:09:39.530Z,4.38
2023-03-18T13:12:33.577Z,4.72
2023-03-18T13:15:28.340Z,4.30
2023-03-18T13:18:21.886Z,4.10
2023-03-18T13:21:15.921Z,3.92
2023-03-18T13:24:41.488Z,4.38
2023-03-18T13:27:54.033Z,4.28
2023-03-18T13:30:57.578Z,4.05
2023-03-18T13:34:11.862Z,4.28
2023-03-18T13:37:18.560Z,4.05
2023-03-18T13:40:28.556Z,4.38
2023-03-18T13:43:22.154Z,4.53
2023-03-18T13:46:20.913Z,4.07
2023-03-18T13:49:18.852Z,4.20
2023-03-18T13:52:24.537Z,4.28
2023-03-18T13:55:28.488Z,4.20
2023-03-18T13:58:26.353Z,4.15
2023-03-18T14:01:33.595Z,4.15
2023-03-18T14:04:33.512Z,4.32
2023-03-18T14:07:23.961Z,4.32
2023-03-18T14:10:20.862Z,4.32
2023-03-18T14:13:29.983Z,3.97
2023-03-18T14:16:23.842Z,4.00
2023-03-18T14:19:19.635Z,4.00
2023-03-18T14:22:15.180Z,3.92
2023-03-18T14:25:39.693Z,4.45
2023-03-18T14:28:31.152Z,3.70
2023-03-18T14:31:43.036Z,4.20
2023-03-18T14:34:34.545Z,4.18
2023-03-18T14:37:30.205Z,4.20
2023-03-18T14:40:19.014Z,4.20
2023-03-18T14:43:12.870Z,3.78
2023-03-18T14:46:06.706Z,4.03
2023-03-18T14:48:55.743Z,4.10
2023-03-18T14:51:44.477Z,4.00
2023-03-18T14:54:39.271Z,3.78
2023-03-18T14:57:28.415Z,3.97
2023-03-18T15:00:20.444Z,4.15
2023-03-18T15:03:19.297Z,3.97
2023-03-18T15:06:09.697Z,4.15
2023-03-18T15:09:02.493Z,4.43
2023-03-18T15:11:52.394Z,3.33
2023-03-18T15:14:42.728Z,4.05
2023-03-18T15:17:32.202Z,4.07
2023-03-18T15:20:24.326Z,3.53
2023-03-18T15:23:15.545Z,3.42
2023-03-18T15:26:06.046Z,3.60
2023-03-18T15:28:57.459Z,4.80
2023-03-18T15:31:46.645Z,4.38
2023-03-18T15:34:38.617Z,6.65
2023-03-18T15:37:40.595Z,7.57
2023-03-18T15:40:32.307Z,7.00
2023-03-18T15:43:31.052Z,7.15
2023-03-18T15:46:25.688Z,7.97
2023-03-18T15:49:16.370Z,8.00
2023-03-18T15:52:09.516Z,11.07
2023-03-18T15:54:59.482Z,9.27
2023-03-18T15:57:48.373Z,11.38
2023-03-18T16:00:37.028Z,8.88
2023-03-18T16:03:29.219Z,8.20
2023-03-18T16:06:18.259Z,8.52
2023-03-18T16:09:15.583Z,8.30
2023-03-18T16:12:14.852Z,7.32
2023-03-18T16:15:05.869Z,7.13
2023-03-18T16:17:56.260Z,7.88
2023-03-18T16:20:46.680Z,7.93
2023-03-18T16:23:35.882Z,7.80
2023-03-18T16:26:24.841Z,7.95
2023-03-18T16:29:22.553Z,8.50
2023-03-18T16:32:14.285Z,8.00
2023-03-18T16:35:04.246Z,8.20
2023-03-18T16:37:54.486Z,8.75
2023-03-18T16:40:45.376Z,8.75
2023-03-18T16:43:34.385Z,7.47
2023-03-18T16:46:26.684Z,8.45
2023-03-18T16:49:17.437Z,8.27
2023-03-18T16:52:07.135Z,8.20
2023-03-18T16:54:56.149Z,8.48
2023-03-18T16:57:48.619Z,8.20
2023-03-18T17:00:39.289Z,8.73
2023-03-18T17:03:30.012Z,9.13
2023-03-18T17:06:20.142Z,9.55
2023-03-18T17:09:09.294Z,8.70
2023-03-18T17:12:01.885Z,9.90
2023-03-18T17:14:55.035Z,9.02
2023-03-18T17:17:45.463Z,10.30
2023-03-18T17:20:36.589Z,10.57
2023-03-18T17:23:27.645Z,9.38
2023-03-18T17:26:16.902Z,10.63
2023-03-18T17:29:06.049Z,9.73
2023-03-18T17:31:57.713Z,10.73
2023-03-18T17:34:49.066Z,9.63
2023-03-18T17:37:39.466Z,10.55
2023-03-18T17:40:32.052Z,10.45
2023-03-18T17:43:33.222Z,9.57
2023-03-18T17:46:21.901Z,9.20
2023-03-18T17:49:12.322Z,9.43
2023-03-18T17:52:01.106Z,9.70
2023-03-18T17:54:52.227Z,10.50
2023-03-18T17:57:42.172Z,10.40
2023-03-18T18:00:31.541Z,10.98
2023-03-18T18:03:24.230Z,10.60
2023-03-18T18:06:18.486Z,9.93
2023-03-18T18:09:07.701Z,9.45
2023-03-18T18:11:58.116Z,9.85
2023-03-18T18:14:47.448Z,10.60
2023-03-18T18:17:37.504Z,10.98
2023-03-18T18:20:26.527Z,10.65
2023-03-18T18:23:25.500Z,11.80
2023-03-18T18:26:16.176Z,10.50
2023-03-18T18:29:14.483Z,9.85
2023-03-18T18:32:04.413Z,10.30
2023-03-18T18:34:54.373Z,9.52
2023-03-18T18:37:43.158Z,11.75
2023-03-18T18:40:35.185Z,12.32
2023-03-18T18:43:25.055Z,11.48
2023-03-18T18:46:16.873Z,10.77
2023-03-18T18:49:05.649Z,11.40
2023-03-18T18:51:57.688Z,14.52
2023-03-18T18:54:46.796Z,15.43
2023-03-18T18:57:39.861Z,13.40
2023-03-18T19:00:28.596Z,12.68
2023-03-18T19:03:20.644Z,12.38
2023-03-18T19:06:20.316Z,13.25
2023-03-18T19:09:17.223Z,57.10
2023-03-18T19:12:15.435Z,45.15
2023-03-18T19:15:05.367Z,21.27
2023-03-18T19:17:54.397Z,15.10
2023-03-18T19:20:44.381Z,16.60
2023-03-18T19:23:35.965Z,15.82
2023-03-18T19:26:25.045Z,15.68
2023-03-18T19:29:14.004Z,15.50
2023-03-18T19:32:03.131Z,13.45
2023-03-18T19:34:53.726Z,14.50
2023-03-18T19:37:46.793Z,14.25
2023-03-18T19:40:35.602Z,14.82
2023-03-18T19:43:24.747Z,13.98
2023-03-18T19:46:17.080Z,12.82
2023-03-18T19:49:14.006Z,11.85
2023-03-18T19:52:03.557Z,12.55
2023-03-18T19:54:54.354Z,12.85
2023-03-18T19:57:46.396Z,12.60
2023-03-18T20:00:35.483Z,12.73
2023-03-18T20:03:26.419Z,11.68
2023-03-18T20:06:18.055Z,11.77
2023-03-18T20:09:06.660Z,12.98
2023-03-18T20:12:05.422Z,18.08
2023-03-18T20:14:54.139Z,14.65
2023-03-18T20:17:44.757Z,13.05
2023-03-18T20:20:34.943Z,12.93
2023-03-18T20:23:26.111Z,13.13
2023-03-18T20:26:16.500Z,14.30
2023-03-18T20:29:16.983Z,13.13
2023-03-18T20:32:06.375Z,11.90
2023-03-18T20:34:55.440Z,10.38
2023-03-18T20:37:44.127Z,11.18
2023-03-18T20:40:34.526Z,11.55
2023-03-18T20:43:25.957Z,10.77
2023-03-18T20:46:16.216Z,10.77
2023-03-18T20:49:04.947Z,11.73
2023-03-18T20:51:53.826Z,11.80
2023-03-18T20:54:43.648Z,12.30
2023-03-18T20:57:32.608Z,12.00
2023-03-18T21:00:23.120Z,11.93
2023-03-18T21:03:24.325Z,11.52
2023-03-18T21:06:15.500Z,11.57
2023-03-18T21:09:07.125Z,10.43
2023-03-18T21:11:55.808Z,11.70
2023-03-18T21:14:46.643Z,10.98
2023-03-18T21:17:35.222Z,11.27
2023-03-18T21:20:30.037Z,10.77
2023-03-18T21:23:21.480Z,11.73
2023-03-18T21:26:10.193Z,16.00
2023-03-18T21:28:59.648Z,17.60
2023-03-18T21:31:48.416Z,11.93
2023-03-18T21:34:38.492Z,12.65
2023-03-18T21:37:29.288Z,11.57
2023-03-18T21:40:20.109Z,11.77
2023-03-18T21:43:26.757Z,14.45
2023-03-18T21:46:18.679Z,15.52
2023-03-18T21:49:07.373Z,12.65
2023-03-18T21:51:56.104Z,11.15
2023-03-18T21:54:47.884Z,11.65
2023-03-18T21:57:37.101Z,10.68
2023-03-18T22:00:27.481Z,10.25
2023-03-18T22:03:17.214Z,10.48
2023-03-18T22:06:06.727Z,10.77
2023-03-18T22:08:57.260Z,11.43
2023-03-18T22:11:47.445Z,10.93
2023-03-18T22:14:36.420Z,10.40
2023-03-18T22:17:27.132Z,10.75
2023-03-18T22:20:17.190Z,11.52
2023-03-18T22:23:18.649Z,11.45
2023-03-18T22:26:07.724Z,11.93
2023-03-18T22:28:57.877Z,10.27
2023-03-18T22:31:47.045Z,10.60
2023-03-18T22:34:36.078Z,10.07
2023-03-18T22:37:26.686Z,11.07
2023-03-18T22:40:19.466Z,10.57
2023-03-18T22:43:19.683Z,10.27
2023-03-18T22:46:11.730Z,10.38
2023-03-18T22:49:06.249Z,10.20
2023-03-18T22:51:56.267Z,10.05
2023-03-18T22:54:44.869Z,10.07
2023-03-18T22:57:34.503Z,9.40
2023-03-18T23:00:26.387Z,9.18
2023-03-18T23:03:19.466Z,10.45
2023-03-18T23:06:10.497Z,9.60
2023-03-18T23:08:59.280Z,10.43
2023-03-18T23:11:48.717Z,10.88
2023-03-18T23:14:37.904Z,10.30
2023-03-18T23:17:29.615Z,9.65
2023-03-18T23:20:19.941Z,9.77
2023-03-18T23:23:09.746Z,9.65
2023-03-18T23:25:58.756Z,10.15
2023-03-18T23:28:49.317Z,9.55
2023-03-18T23:31:37.978Z,9.55
2023-03-18T23:34:27.378Z,9.70
2023-03-18T23:37:18.030Z,9.55
2023-03-18T23:40:07.701Z,9.55
2023-03-18T23:42:57.842Z,9.82
2023-03-18T23:45:47.005Z,10.57
2023-03-18T23:48:36.285Z,9.65
2023-03-18T23:51:24.942Z,10.48
2023-03-18T23:54:16.498Z,9.60
2023-03-18T23:57:05.413Z,9.40
2023-03-18T23:59:54.544Z,8.73
